Time;durP1;ratioP1;P1;durP2;ratioP2;P2;SDS_P1;SDS_P2;PMS_P1;PMS_P2;Temp;Humidity;BMP_temperature;BMP_pressure;BME280_temperature;BME280_humidity;BME280_pressure;Samples;Min_cycle;Max_cycle;Signal;HPM_P1;HPM_P2
2021/03/25 00:01:38;;;;;;;410.45;147.57;;;;;;;0.80;75.62;101103.22;1756802;80;21539;-74
2021/03/25 00:04:04;;;;;;;386.73;143.22;;;;;;;0.82;75.66;101103.50;1757115;81;22213;-75
2021/03/25 00:06:32;;;;;;;373.05;135.80;;;;;;;0.85;75.74;101099.38;1756968;81;21141;-74
2021/03/25 00:08:58;;;;;;;363.73;135.72;;;;;;;0.88;75.76;101106.24;1771639;80;21176;-74
2021/03/25 00:15:23;;;;;;;296.20;109.95;;;;;;;0.84;75.85;101096.86;1769868;80;21132;-74
2021/03/25 00:17:50;;;;;;;281.57;105.10;;;;;;;0.77;75.90;101102.09;1732246;82;21152;-74
2021/03/25 00:20:16;;;;;;;239.53;88.97;;;;;;;0.75;75.90;101093.44;1726734;83;21604;-74
2021/03/25 00:22:43;;;;;;;206.00;80.17;;;;;;;0.75;75.93;101093.44;1733662;82;21665;-74
2021/03/25 00:25:13;;;;;;;202.00;81.65;;;;;;;0.78;75.93;101094.57;1760086;81;21198;-74
2021/03/25 00:27:40;;;;;;;;;;;;;;;0.81;75.95;101091.79;1736383;82;21617;-74
2021/03/25 00:30:07;;;;;;;191.10;75.65;;;;;;;0.84;75.99;101095.08;1702831;82;20707;-74
2021/03/25 00:32:34;;;;;;;207.90;81.57;;;;;;;0.89;76.02;101092.16;1730441;81;21062;-74
2021/03/25 00:35:00;;;;;;;188.22;81.35;;;;;;;0.93;76.07;101096.30;1696170;84;21584;-74
2021/03/25 00:37:26;;;;;;;165.55;74.77;;;;;;;0.95;76.12;101087.87;1724268;83;21706;-74
2021/03/25 00:39:53;;;;;;;238.97;92.08;;;;;;;1.02;76.17;101087.88;1696237;84;21152;-74
2021/03/25 00:42:19;;;;;;;219.93;89.28;;;;;;;1.08;76.22;101082.72;1724247;83;21280;-74
2021/03/25 00:44:45;;;;;;;212.23;86.80;;;;;;;1.13;76.27;101079.32;1696301;84;21180;-74
2021/03/25 00:47:11;;;;;;;215.40;87.53;;;;;;;1.13;76.33;101078.86;1724488;83;21140;-74
2021/03/25 00:49:38;;;;;;;190.90;81.32;;;;;;;1.11;76.37;101084.69;1696615;84;21176;-74
2021/03/25 00:52:05;;;;;;;216.33;87.35;;;;;;;1.09;76.41;101073.41;1724201;83;21125;-75
2021/03/25 00:54:31;;;;;;;204.93;85.45;;;;;;;1.06;76.46;101073.60;1674718;85;21333;-74
2021/03/25 00:56:57;;;;;;;186.62;75.28;;;;;;;1.04;76.50;101071.55;1704392;84;21188;-74
2021/03/25 00:59:23;;;;;;;174.15;74.03;;;;;;;1.03;76.53;101072.48;1715188;81;21120;-74
2021/03/25 01:01:50;;;;;;;141.77;61.88;;;;;;;1.02;76.56;101073.44;1726924;83;21159;-74
2021/03/25 01:04:16;;;;;;;140.52;61.45;;;;;;;1.04;76.62;101069.39;1724512;83;21598;-75
2021/03/25 01:06:42;;;;;;;152.85;67.42;;;;;;;1.06;76.65;101064.41;1726888;83;21263;-74
2021/03/25 01:09:19;;;;;;;160.88;69.72;;;;;;;1.10;76.68;101063.30;1732164;82;21187;-74
2021/03/25 01:11:46;;;;;;;186.18;77.27;;;;;;;1.14;76.73;101061.32;1732704;82;21223;-74
2021/03/25 01:14:12;;;;;;;167.80;71.82;;;;;;;1.19;76.81;101058.81;1752848;81;21152;-74
2021/03/25 01:16:43;;;;;;;155.18;71.47;;;;;;;1.22;76.86;101056.45;1697565;84;21168;-74
2021/03/25 01:19:27;;;;;;;175.40;76.67;;;;;;;1.22;76.93;101052.52;1756684;81;21269;-74
2021/03/25 01:21:54;;;;;;;182.47;75.40;;;;;;;1.20;77.00;101055.69;1756678;81;21577;-74
2021/03/25 01:24:20;;;;;;;165.95;73.70;;;;;;;1.17;77.04;101053.25;1757036;81;21172;-74
2021/03/25 01:26:46;;;;;;;154.70;70.67;;;;;;;1.16;77.08;101052.90;1756648;81;21175;-74
2021/03/25 01:29:13;;;;;;;156.43;70.70;;;;;;;1.16;77.12;101056.34;1756805;81;21211;-74
2021/03/25 01:31:39;;;;;;;150.10;69.82;;;;;;;1.13;77.15;101052.59;1756802;81;21142;-74
2021/03/25 01:34:06;;;;;;;151.42;64.35;;;;;;;1.07;77.16;101046.41;1756682;81;21192;-74
2021/03/25 01:36:32;;;;;;;135.90;62.15;;;;;;;1.07;77.19;101046.41;1757571;80;21095;-75
2021/03/25 01:38:58;;;;;;;127.65;59.23;;;;;;;1.07;77.21;101049.04;1756866;81;21602;-74
2021/03/25 01:41:28;;;;;;;134.20;61.63;;;;;;;1.07;77.24;101042.47;1757044;81;21035;-74
2021/03/25 01:43:55;;;;;;;122.87;59.08;;;;;;;1.09;77.28;101043.21;1756537;81;22274;-73
2021/03/25 01:46:38;;;;;;;124.70;62.38;;;;;;;1.14;77.30;101041.63;1693113;83;21201;-73
2021/03/25 01:49:07;;;;;;;143.30;65.10;;;;;;;1.16;77.37;101037.95;1756368;80;21103;-73
2021/03/25 01:52:27;;;;;;;129.45;62.93;;;;;;;1.18;77.42;101040.04;1757213;81;21098;-73
2021/03/25 01:55:07;;;;;;;127.53;60.60;;;;;;;1.20;77.45;101032.05;1725603;83;21183;-72
2021/03/25 01:57:56;;;;;;;136.37;63.38;;;;;;;1.23;77.52;101032.70;1756539;81;21745;-73
2021/03/25 02:00:36;;;;;;;131.72;65.50;;;;;;;1.22;77.55;101024.94;1756103;80;21118;-73
2021/03/25 02:03:16;;;;;;;129.25;64.10;;;;;;;1.22;77.57;101031.50;1723018;81;21131;-73
2021/03/25 02:06:21;;;;;;;133.82;60.28;;;;;;;1.20;77.60;101017.59;1757193;79;21104;-73
2021/03/25 02:09:16;;;;;;;132.40;59.20;;;;;;;1.20;77.63;101014.51;1756865;81;21159;-73
2021/03/25 02:11:53;;;;;;;148.85;63.52;;;;;;;1.28;77.64;101017.51;1756938;81;21127;-73
2021/03/25 02:15:03;;;;;;;148.93;64.07;;;;;;;1.36;77.66;101021.83;1755762;81;21200;-74
2021/03/25 02:17:41;;;;;;;;;;;;;;;1.48;77.68;101015.78;1758835;81;21537;-73
2021/03/25 02:20:42;;;;;;;121.10;56.37;;;;;;;1.60;77.71;101012.85;1756828;80;20264;-73
2021/03/25 02:23:44;;;;;;;110.95;57.00;;;;;;;1.66;77.76;101019.48;1756672;79;21174;-73
2021/03/25 02:26:24;;;;;;;124.58;60.25;;;;;;;1.77;77.80;101020.97;1758404;80;21283;-73
2021/03/25 02:29:30;;;;;;;136.18;66.30;;;;;;;1.84;77.85;101019.63;1726550;81;24023;-73
2021/03/25 02:32:00;;;;;;;153.20;77.00;;;;;;;1.86;77.91;101020.39;1725482;83;21583;-73
2021/03/25 02:34:31;;;;;;;143.17;72.80;;;;;;;1.85;77.96;101018.69;1756912;81;21593;-73
2021/03/25 02:37:13;;;;;;;133.25;70.72;;;;;;;1.83;78.03;101017.96;1723471;81;21136;-73
2021/03/25 02:39:48;;;;;;;135.60;65.97;;;;;;;1.84;78.09;101015.69;1725508;82;22062;-73
2021/03/25 02:42:15;;;;;;;139.35;67.22;;;;;;;1.84;78.10;101018.31;1748789;82;21105;-73
2021/03/25 02:44:49;;;;;;;124.55;63.48;;;;;;;1.84;78.11;101024.88;1748488;82;21142;-74
2021/03/25 02:47:15;;;;;;;128.85;61.95;;;;;;;1.81;78.16;101011.94;1748761;82;21180;-73
2021/03/25 02:49:53;;;;;;;119.50;58.02;;;;;;;1.81;78.19;101021.14;1748750;82;21116;-73
2021/03/25 02:52:31;;;;;;;122.13;60.43;;;;;;;1.79;78.22;101017.78;1748899;82;22090;-73
2021/03/25 02:55:04;;;;;;;119.08;59.03;;;;;;;1.75;78.25;101015.82;1748777;81;21250;-73
2021/03/25 02:58:11;;;;;;;129.10;62.33;;;;;;;1.74;78.28;101019.39;1758749;80;21121;-73
2021/03/25 03:00:44;;;;;;;133.55;65.15;;;;;;;1.75;78.33;101015.82;1779711;80;21460;-73
2021/03/25 03:03:19;;;;;;;136.47;66.12;;;;;;;1.73;78.40;101019.47;1787847;80;21124;-73
2021/03/25 03:05:45;;;;;;;143.13;67.35;;;;;;;1.72;78.43;101017.34;1787849;80;21580;-73
2021/03/25 03:08:24;;;;;;;129.15;65.62;;;;;;;1.70;78.44;101015.73;1788003;80;21289;-73
2021/03/25 03:10:55;;;;;;;129.90;66.75;;;;;;;1.69;78.50;101010.13;1787889;80;21120;-73
2021/03/25 03:13:23;;;;;;;133.87;64.65;;;;;;;1.67;78.53;101015.92;1787553;80;21203;-73
2021/03/25 03:16:03;;;;;;;129.53;66.42;;;;;;;1.63;78.54;101019.22;1787924;80;21116;-74
2021/03/25 03:19:02;;;;;;;131.60;61.20;;;;;;;1.60;78.58;101016.80;1787779;80;22140;-74
2021/03/25 03:21:36;;;;;;;129.03;61.30;;;;;;;1.55;78.62;101012.78;1787744;80;21199;-74
2021/03/25 03:24:02;;;;;;;122.62;59.60;;;;;;;1.51;78.64;101012.95;1787421;80;21152;-74
2021/03/25 03:26:32;;;;;;;112.52;58.10;;;;;;;1.47;78.69;101015.43;1766026;80;21094;-74
2021/03/25 03:29:04;;;;;;;;;;;;;;;1.44;78.70;101018.72;1756501;81;21499;-74
2021/03/25 03:31:39;;;;;;;121.07;59.53;;;;;;;1.42;78.74;101024.06;1756485;81;21302;-73
2021/03/25 03:34:10;;;;;;;130.25;63.55;;;;;;;1.38;78.79;101022.56;1756469;81;21643;-73
2021/03/25 03:36:36;;;;;;;123.13;61.13;;;;;;;1.36;78.82;101021.83;1756143;81;21194;-73
2021/03/25 03:39:12;;;;;;;132.87;63.48;;;;;;;1.34;78.85;101019.74;1756646;81;21070;-73
2021/03/25 03:41:55;;;;;;;130.43;65.22;;;;;;;1.32;78.92;101020.33;1756007;81;21147;-74
2021/03/25 03:44:30;;;;;;;139.80;66.55;;;;;;;1.24;78.97;101014.69;1722045;83;21217;-74
2021/03/25 03:46:57;;;;;;;135.65;64.95;;;;;;;1.16;79.01;101016.13;1722882;83;21168;-73
2021/03/25 03:49:44;;;;;;;132.07;67.17;;;;;;;1.11;79.04;101019.03;1722814;83;21591;-74
2021/03/25 03:52:26;;;;;;;145.50;66.17;;;;;;;1.08;79.05;101016.59;1723029;83;21188;-74
2021/03/25 03:54:54;;;;;;;142.65;63.85;;;;;;;1.03;79.07;101019.95;1723525;81;21085;-74
2021/03/25 03:58:00;;;;;;;139.05;64.35;;;;;;;1.00;79.06;101024.09;1722706;83;21834;-73
2021/03/25 04:00:34;;;;;;;145.35;64.07;;;;;;;0.97;79.07;101028.22;1722484;83;21153;-73
2021/03/25 04:03:43;;;;;;;135.60;62.25;;;;;;;0.95;79.08;101023.55;1717451;82;21139;-73
2021/03/25 04:06:20;;;;;;;133.85;62.55;;;;;;;0.93;79.08;101024.09;1722811;83;21145;-74
2021/03/25 04:09:04;;;;;;;127.47;58.05;;;;;;;0.93;79.13;101022.78;1722571;83;21204;-74
2021/03/25 04:11:38;;;;;;;135.15;63.38;;;;;;;0.96;79.18;101025.21;1722719;83;21175;-74
2021/03/25 04:14:11;;;;;;;130.80;63.10;;;;;;;0.97;79.21;101021.66;1722589;83;21539;-74
2021/03/25 04:16:37;;;;;;;131.43;65.30;;;;;;;0.97;79.25;101017.72;1694757;83;21260;-74
2021/03/25 04:19:17;;;;;;;126.45;64.70;;;;;;;0.95;79.31;101018.30;1748718;82;21107;-74
2021/03/25 04:21:57;;;;;;;138.52;66.35;;;;;;;0.96;79.36;101027.37;1726425;81;21151;-74
2021/03/25 04:24:29;;;;;;;133.75;66.57;;;;;;;0.96;79.39;101016.02;1756900;81;21202;-74
2021/03/25 04:27:08;;;;;;;131.45;66.82;;;;;;;0.93;79.43;101016.21;1756582;81;21147;-74
2021/03/25 04:29:45;;;;;;;132.52;65.25;;;;;;;0.88;79.47;101016.98;1742629;81;21076;-74
2021/03/25 04:32:11;;;;;;;137.60;64.37;;;;;;;0.83;79.51;101016.40;1725674;83;21154;-74
2021/03/25 04:34:37;;;;;;;125.25;61.20;;;;;;;0.78;79.51;101018.45;1748840;82;21152;-74
2021/03/25 04:37:05;;;;;;;121.70;59.23;;;;;;;0.75;79.54;101019.95;1748741;82;21299;-74
2021/03/25 04:39:31;;;;;;;122.58;59.42;;;;;;;0.72;79.55;101017.52;1748963;82;21155;-74
2021/03/25 04:41:57;;;;;;;116.53;59.75;;;;;;;0.73;79.61;101019.20;1748776;82;21148;-74
2021/03/25 04:44:31;;;;;;;128.70;62.45;;;;;;;0.74;79.61;101016.97;1748665;82;21091;-74
2021/03/25 04:47:15;;;;;;;134.87;66.15;;;;;;;0.76;79.65;101012.45;1756984;81;21174;-74
2021/03/25 04:49:50;;;;;;;141.32;66.95;;;;;;;0.79;79.67;101017.05;1768686;80;21239;-74
2021/03/25 04:52:21;;;;;;;144.72;70.85;;;;;;;0.82;79.69;101017.33;1787165;80;21172;-74
2021/03/25 04:55:15;;;;;;;142.60;70.20;;;;;;;0.78;79.72;101023.70;1787867;80;21428;-74
2021/03/25 04:57:57;;;;;;;135.65;69.80;;;;;;;0.74;79.73;101015.66;1787911;80;21147;-74
2021/03/25 05:00:41;;;;;;;144.93;73.47;;;;;;;0.68;79.77;101018.16;1756031;81;21433;-74
2021/03/25 05:03:18;;;;;;;163.25;87.30;;;;;;;0.67;79.82;101019.58;1755819;80;21404;-74
2021/03/25 05:05:44;;;;;;;154.57;75.83;;;;;;;0.65;79.86;101018.34;1748511;82;21140;-74
2021/03/25 05:08:19;;;;;;;145.82;74.12;;;;;;;0.62;79.86;101021.16;1748824;81;21144;-74
2021/03/25 05:11:08;;;;;;;167.47;80.50;;;;;;;0.58;79.83;101018.80;1748465;82;21132;-74
2021/03/25 05:13:37;;;;;;;139.68;71.00;;;;;;;0.55;79.80;101022.92;1748420;82;21148;-74
2021/03/25 05:16:56;;;;;;;154.27;76.62;;;;;;;0.56;79.83;101018.06;1756710;80;22153;-74
2021/03/25 05:26:29;;;;;;;154.07;72.03;;;;;;;1.03;79.88;101008.14;1757016;81;21148;-74
2021/03/25 05:29:00;;;;;;;151.12;71.90;;;;;;;1.29;79.92;101014.42;1756732;81;21167;-74
2021/03/25 05:31:30;;;;;;;142.10;69.45;;;;;;;1.48;79.97;101011.84;1753332;80;21205;-74
2021/03/25 05:33:59;;;;;;;143.93;71.15;;;;;;;1.69;79.96;101019.32;1753455;81;21141;-74
2021/03/25 05:36:26;;;;;;;137.07;69.27;;;;;;;1.92;79.92;101019.98;1723578;82;21165;-74
2021/03/25 05:42:59;;;;;;;146.28;77.40;;;;;;;2.34;79.89;101025.52;1694684;84;21582;-74
2021/03/25 05:45:46;;;;;;;139.65;69.70;;;;;;;2.81;79.85;101023.64;1693024;83;21276;-74
2021/03/25 05:48:29;;;;;;;147.75;73.05;;;;;;;2.99;79.79;101026.33;1694649;83;21188;-74
2021/03/25 05:51:40;;;;;;;140.12;70.37;;;;;;;3.07;79.51;101027.94;1705006;84;21169;-74
2021/03/25 05:54:21;;;;;;;121.95;62.45;;;;;;;2.95;79.33;101027.48;1706414;83;21599;-75
2021/03/25 05:57:16;;;;;;;130.85;67.55;;;;;;;2.88;79.38;101028.39;1736015;82;21189;-75
2021/03/25 06:00:09;;;;;;;133.60;68.37;;;;;;;2.81;79.41;101027.13;1736113;82;21208;-75
2021/03/25 06:02:47;;;;;;;138.88;67.37;;;;;;;2.91;79.39;101032.59;1735892;82;21177;-74
2021/03/25 06:05:13;;;;;;;133.18;65.95;;;;;;;2.96;79.39;101033.09;1734499;81;21126;-74
2021/03/25 06:08:15;;;;;;;141.70;69.30;;;;;;;3.03;79.37;101036.18;1723417;83;21122;-74
2021/03/25 06:10:47;;;;;;;151.85;72.40;;;;;;;3.12;79.33;101033.74;1723521;82;21482;-74
2021/03/25 06:13:30;;;;;;;140.50;72.60;;;;;;;3.33;79.28;101039.30;1723758;82;21278;-74
2021/03/25 06:16:17;;;;;;;127.35;66.77;;;;;;;3.53;79.26;101036.93;1723158;83;21154;-74
2021/03/25 06:19:31;;;;;;;124.95;67.22;;;;;;;3.85;79.24;101037.25;1723672;82;21556;-74
2021/03/25 06:22:27;;;;;;;129.75;65.85;;;;;;;4.21;79.18;101040.31;1723873;81;21178;-74
2021/03/25 06:25:44;;;;;;;119.60;63.05;;;;;;;4.72;79.11;101043.47;1811352;78;22805;-75
2021/03/25 06:28:36;;;;;;;118.93;65.52;;;;;;;4.89;79.01;101044.34;1795563;79;21513;-75
2021/03/25 06:31:44;;;;;;;129.30;67.62;;;;;;;5.15;78.87;101037.05;1763067;81;21712;-75
2021/03/25 06:34:24;;;;;;;139.97;72.45;;;;;;;5.45;78.82;101034.63;1784598;79;20987;-75
2021/03/25 06:37:06;;;;;;;;;;;;;;;5.82;78.79;101034.34;1783360;79;21065;-75
2021/03/25 06:39:37;;;;;;;126.62;64.80;;;;;;;6.12;78.71;101037.19;1789977;80;20241;-75
2021/03/25 06:42:15;;;;;;;133.52;73.30;;;;;;;6.35;78.66;101034.80;1757471;81;21613;-75
2021/03/25 06:45:02;;;;;;;149.82;82.08;;;;;;;6.46;78.58;101035.23;1756371;81;21277;-75
2021/03/25 06:47:57;;;;;;;134.87;76.53;;;;;;;6.48;78.46;101035.45;1757277;81;21581;-75
2021/03/25 06:50:32;;;;;;;135.18;80.62;;;;;;;6.62;78.31;101042.72;1750624;81;21132;-76
2021/03/25 06:53:03;;;;;;;138.22;73.35;;;;;;;6.92;78.17;101048.09;1763175;80;21136;-75
2021/03/25 06:55:29;;;;;;;119.08;68.12;;;;;;;7.13;78.02;101044.94;1725053;80;21128;-74
2021/03/25 06:58:05;;;;;;;106.52;61.25;;;;;;;7.29;77.87;101039.97;1732276;82;21278;-75
2021/03/25 07:00:34;;;;;;;107.67;61.68;;;;;;;7.47;77.69;101043.69;1731943;82;21656;-75
2021/03/25 07:03:03;;;;;;;107.12;63.17;;;;;;;7.65;77.49;101043.04;1727313;82;21219;-75
2021/03/25 07:05:31;;;;;;;105.83;63.35;;;;;;;7.86;77.34;101045.12;1754784;81;21617;-74
2021/03/25 07:08:19;;;;;;;109.92;66.77;;;;;;;8.10;77.14;101044.73;1759417;81;21171;-74
2021/03/25 07:10:52;;;;;;;108.17;68.83;;;;;;;8.32;76.92;101037.38;1757865;81;22763;-74
2021/03/25 07:13:31;;;;;;;120.25;70.70;;;;;;;8.56;76.72;101037.43;1733923;82;21152;-74
2021/03/25 07:15:58;;;;;;;117.62;64.55;;;;;;;8.76;76.49;101041.77;1734168;82;21195;-75
2021/03/25 07:18:34;;;;;;;117.13;63.45;;;;;;;8.85;76.29;101040.90;1735024;82;21207;-75
2021/03/25 07:21:28;;;;;;;97.90;59.85;;;;;;;8.99;76.12;101037.30;1754961;81;21176;-75
2021/03/25 07:23:57;;;;;;;98.50;58.83;;;;;;;9.11;75.93;101039.80;1761029;80;21309;-75
2021/03/25 07:26:35;;;;;;;99.50;58.00;;;;;;;9.25;75.66;101044.16;1757678;81;21156;-74
2021/03/25 07:29:12;;;;;;;94.77;56.35;;;;;;;9.37;75.40;101033.66;1737389;81;21176;-74
2021/03/25 07:31:43;;;;;;;103.27;59.67;;;;;;;9.43;75.15;101035.73;1723133;82;21148;-74
2021/03/25 07:34:09;;;;;;;93.10;55.65;;;;;;;9.53;75.04;101037.84;1715171;81;21129;-74
2021/03/25 07:36:50;;;;;;;96.85;56.95;;;;;;;9.54;74.76;101038.69;1769614;80;21128;-74
2021/03/25 07:39:22;;;;;;;89.07;54.40;;;;;;;9.61;74.45;101041.59;1780668;80;21211;-75
2021/03/25 07:41:49;;;;;;;99.95;55.90;;;;;;;9.74;74.17;101046.11;1747198;81;21154;-75
2021/03/25 07:44:32;;;;;;;88.27;57.50;;;;;;;9.89;73.98;101042.77;1761472;80;21184;-75
2021/03/25 07:47:01;;;;;;;85.20;52.67;;;;;;;10.14;73.74;101040.36;1749471;81;21164;-75
2021/03/25 07:49:30;;;;;;;83.33;52.15;;;;;;;10.35;73.53;101036.44;1749299;81;22189;-76
2021/03/25 07:52:09;;;;;;;84.93;54.57;;;;;;;10.52;73.32;101047.59;1748593;80;21650;-75
2021/03/25 07:54:40;;;;;;;87.27;51.95;;;;;;;10.72;73.08;101044.77;1734405;82;21223;-74
2021/03/25 07:57:20;;;;;;;82.88;53.10;;;;;;;10.91;72.92;101045.89;1738330;82;21177;-75
2021/03/25 08:02:41;;;;;;;83.60;50.33;;;;;;;11.16;72.30;101046.39;1808901;78;22802;-73
2021/03/25 08:05:25;;;;;;;81.95;50.40;;;;;;;11.18;72.09;101045.75;1793556;78;21133;-76
2021/03/25 08:07:53;;;;;;;76.57;49.08;;;;;;;11.21;71.82;101048.11;1772586;79;22145;-76
2021/03/25 08:10:34;;;;;;;81.92;49.58;;;;;;;11.26;71.60;101048.45;1782437;78;21175;-76
2021/03/25 08:13:16;;;;;;;76.02;48.73;;;;;;;11.29;71.39;101046.83;1786293;79;21151;-77
2021/03/25 08:15:45;;;;;;;80.22;51.75;;;;;;;11.39;71.23;101048.88;1766983;79;21161;-76
2021/03/25 08:18:35;;;;;;;83.37;51.68;;;;;;;11.56;70.94;101039.59;1775839;79;21163;-76
2021/03/25 08:21:32;;;;;;;82.00;48.55;;;;;;;11.70;70.69;101051.01;1772519;79;25469;-77
2021/03/25 08:24:10;;;;;;;70.60;43.95;;;;;;;11.83;70.41;101046.91;1766407;79;21760;-76
2021/03/25 08:27:02;;;;;;;86.53;54.13;;;;;;;11.95;70.07;101050.13;1787560;79;21000;-77
2021/03/25 08:29:36;;;;;;;74.30;46.98;;;;;;;12.03;69.78;101050.97;1771775;79;21589;-77
2021/03/25 08:32:41;;;;;;;74.80;46.40;;;;;;;12.10;69.44;101040.48;1746739;79;21167;-77
2021/03/25 08:35:46;;;;;;;77.67;45.83;;;;;;;12.20;69.08;101040.33;1801281;78;22816;-77
2021/03/25 08:38:37;;;;;;;82.90;50.58;;;;;;;12.16;68.85;101039.82;1766032;80;21615;-76
2021/03/25 08:41:27;;;;;;;93.20;58.63;;;;;;;12.29;68.60;101044.67;1766161;79;21280;-76
2021/03/25 08:44:17;;;;;;;87.88;53.80;;;;;;;12.45;68.36;101045.52;1766640;80;21574;-77
2021/03/25 08:46:52;;;;;;;98.95;53.17;;;;;;;12.58;68.03;101043.70;1765656;80;21173;-77
2021/03/25 08:49:29;;;;;;;85.35;51.30;;;;;;;12.67;67.76;101037.83;1766340;80;21606;-76
2021/03/25 08:51:55;;;;;;;71.30;49.05;;;;;;;12.73;67.52;101037.19;1732581;80;21224;-76
2021/03/25 08:54:43;;;;;;;71.02;45.65;;;;;;;12.86;67.25;101042.85;1711416;81;21304;-75
2021/03/25 08:57:27;;;;;;;73.55;48.15;;;;;;;12.86;67.05;101039.68;1765774;80;21209;-76
2021/03/25 09:00:07;;;;;;;84.95;54.45;;;;;;;12.81;66.75;101038.50;1763938;80;21171;-76
2021/03/25 09:03:03;;;;;;;;;;;;;;;12.60;66.37;101040.34;1768822;80;21739;-76
2021/03/25 09:06:02;;;;;;;82.97;53.38;;;;;;;12.46;66.15;101037.84;1766503;80;20319;-76
2021/03/25 09:08:28;;;;;;;82.05;51.40;;;;;;;12.47;66.03;101040.02;1765806;80;21208;-76
2021/03/25 09:10:59;;;;;;;79.97;50.67;;;;;;;12.49;65.80;101038.00;1766737;80;21145;-76
2021/03/25 09:13:29;;;;;;;80.25;51.37;;;;;;;12.37;65.44;101032.16;1764968;80;21190;-75
2021/03/25 09:15:58;;;;;;;84.40;53.40;;;;;;;12.32;65.32;101037.16;1766676;80;21135;-76
2021/03/25 09:18:27;;;;;;;80.92;52.88;;;;;;;12.46;65.19;101040.52;1733644;80;21130;-76
2021/03/25 09:20:57;;;;;;;82.88;52.03;;;;;;;12.53;65.07;101037.51;1766034;80;21157;-76
2021/03/25 09:23:35;;;;;;;77.25;49.83;;;;;;;12.63;64.85;101041.88;1764782;80;21137;-75
2021/03/25 09:26:11;;;;;;;77.75;51.68;;;;;;;12.67;64.63;101037.83;1765970;80;21255;-75
2021/03/25 09:29:03;;;;;;;79.67;49.08;;;;;;;12.89;64.48;101036.66;1764724;80;21537;-75
2021/03/25 09:31:34;;;;;;;78.25;49.05;;;;;;;13.08;64.28;101039.48;1761713;80;22263;-75
2021/03/25 09:34:15;;;;;;;82.42;54.08;;;;;;;13.04;63.99;101024.76;1759450;80;21747;-75
2021/03/25 09:36:46;;;;;;;75.30;46.50;;;;;;;13.18;64.00;101024.09;1764094;80;21152;-75
2021/03/25 09:39:23;;;;;;;75.80;48.92;;;;;;;13.26;63.82;101021.41;1768614;80;21202;-75
2021/03/25 09:41:50;;;;;;;67.72;44.45;;;;;;;13.41;63.71;101019.66;1764579;80;21174;-70
2021/03/25 09:44:33;;;;;;;71.42;46.90;;;;;;;13.48;63.49;101019.30;1761788;80;21157;-75
2021/03/25 09:47:05;;;;;;;65.55;43.48;;;;;;;13.49;63.23;101012.09;1761322;80;21240;-75
2021/03/25 09:49:42;;;;;;;82.08;49.55;;;;;;;13.48;62.96;101014.43;1722659;82;21578;-75
2021/03/25 09:52:22;;;;;;;69.77;46.02;;;;;;;13.51;62.77;101014.08;1656914;83;21187;-75
2021/03/25 09:55:00;;;;;;;68.83;45.92;;;;;;;13.57;62.56;101011.23;1723359;82;21193;-75
2021/03/25 09:57:35;;;;;;;63.98;44.75;;;;;;;13.55;62.33;101007.87;1722856;82;21647;-74
2021/03/25 10:00:18;;;;;;;76.10;49.08;;;;;;;13.51;62.09;101010.90;1729635;81;22236;-75
2021/03/25 10:02:51;;;;;;;68.62;45.28;;;;;;;13.59;61.92;101004.67;1724815;82;21156;-75
2021/03/25 10:05:32;;;;;;;71.60;44.13;;;;;;;13.62;61.70;101007.00;1722692;83;21454;-75
2021/03/25 10:08:15;;;;;;;71.00;45.98;;;;;;;13.66;61.51;101010.17;1692395;84;21176;-75
2021/03/25 10:10:46;;;;;;;70.45;45.30;;;;;;;13.76;61.36;101010.78;1722438;82;21137;-75
2021/03/25 10:13:33;;;;;;;67.53;44.58;;;;;;;13.79;61.19;101002.42;1724451;83;21446;-75
2021/03/25 10:16:08;;;;;;;66.20;44.23;;;;;;;13.85;60.89;101001.70;1724743;83;21153;-75
2021/03/25 10:18:40;;;;;;;67.62;42.75;;;;;;;13.83;60.63;101002.37;1719798;82;21161;-74
2021/03/25 10:21:14;;;;;;;68.40;43.05;;;;;;;13.84;60.34;101005.39;1723229;83;21152;-74
2021/03/25 10:23:57;;;;;;;62.95;43.28;;;;;;;13.91;60.18;101002.33;1722967;83;21149;-75
2021/03/25 10:26:34;;;;;;;66.77;42.58;;;;;;;13.97;60.00;100994.91;1718254;83;21271;-75
2021/03/25 10:29:17;;;;;;;65.15;42.03;;;;;;;14.04;59.82;100994.53;1695637;83;21128;-75
2021/03/25 10:31:52;;;;;;;66.33;39.42;;;;;;;14.15;59.70;100999.48;1724102;82;21149;-75
2021/03/25 10:34:34;;;;;;;63.13;40.08;;;;;;;14.27;59.51;100994.55;1693795;83;21179;-75
2021/03/25 10:37:12;;;;;;;62.27;39.98;;;;;;;14.36;59.33;100988.97;1708857;78;21271;-75
2021/03/25 10:39:41;;;;;;;66.17;40.15;;;;;;;14.34;59.09;100987.48;1678215;84;21215;-74
2021/03/25 10:42:36;;;;;;;60.87;39.07;;;;;;;14.28;58.93;100990.36;1715556;82;21216;-75
2021/03/25 10:45:39;;;;;;;64.50;41.20;;;;;;;14.30;58.82;100976.25;1702073;84;21150;-75
2021/03/25 10:48:32;;;;;;;62.20;40.20;;;;;;;14.41;58.68;100981.22;1720111;82;21162;-75
2021/03/25 10:51:09;;;;;;;62.48;42.50;;;;;;;14.47;58.43;100985.02;1734023;82;21090;-75
2021/03/25 10:53:44;;;;;;;57.20;39.92;;;;;;;14.48;58.31;100982.17;1728550;82;21277;-75
2021/03/25 10:56:37;;;;;;;66.42;44.75;;;;;;;14.57;58.06;100978.05;1734550;82;21148;-75
2021/03/25 10:59:17;;;;;;;59.08;38.90;;;;;;;14.69;57.83;100972.58;1734095;82;21434;-75
2021/03/25 11:01:49;;;;;;;68.62;38.45;;;;;;;14.74;57.58;100966.98;1736731;81;21194;-76
2021/03/25 11:04:23;;;;;;;55.38;37.38;;;;;;;14.71;57.26;100975.91;1735045;81;21566;-76
2021/03/25 11:06:49;;;;;;;62.60;40.52;;;;;;;14.65;57.06;100969.93;1700148;84;21218;-76
2021/03/25 11:09:23;;;;;;;59.08;37.08;;;;;;;14.62;56.92;100971.14;1704020;84;21187;-76
2021/03/25 11:12:11;;;;;;;54.95;36.35;;;;;;;14.57;56.72;100969.50;1706031;82;21136;-76
2021/03/25 11:14:46;;;;;;;58.50;35.83;;;;;;;14.53;56.60;100972.21;1722311;82;21163;-75
2021/03/25 11:17:27;;;;;;;57.75;36.65;;;;;;;14.49;56.45;100971.73;1698689;83;21650;-75
2021/03/25 11:19:57;;;;;;;59.83;38.33;;;;;;;14.54;56.33;100965.00;1746944;81;21262;-76
2021/03/25 11:22:23;;;;;;;;;;;;;;;14.58;56.25;100959.59;1703651;84;21603;-76
2021/03/25 11:24:50;;;;;;;59.20;37.40;;;;;;;14.61;56.13;100955.20;1701295;84;20259;-75
2021/03/25 11:27:19;;;;;;;59.33;39.13;;;;;;;14.68;56.06;100953.45;1697795;84;21203;-76
2021/03/25 11:29:46;;;;;;;66.62;39.85;;;;;;;14.81;55.99;100946.97;1732198;82;21226;-75
2021/03/25 11:32:22;;;;;;;60.75;36.73;;;;;;;14.88;55.41;100942.53;1701931;84;21194;-76
2021/03/25 11:34:52;;;;;;;59.35;37.65;;;;;;;14.88;55.41;100942.53;1701656;84;21182;-75
2021/03/25 11:37:32;;;;;;;55.80;37.85;;;;;;;14.90;55.69;100940.48;1731368;81;21576;-75
2021/03/25 11:40:15;;;;;;;57.83;37.67;;;;;;;14.89;55.67;100942.33;1675605;85;21173;-75
2021/03/25 11:42:43;;;;;;;61.65;38.42;;;;;;;14.88;55.60;100938.50;1705507;82;21560;-75
2021/03/25 11:45:34;;;;;;;61.83;39.27;;;;;;;14.90;55.44;100927.89;1675569;84;21276;-75
2021/03/25 11:48:00;;;;;;;59.58;36.38;;;;;;;14.87;55.25;100939.00;1687143;84;21141;-75
2021/03/25 11:50:32;;;;;;;54.40;35.30;;;;;;;15.00;55.17;100931.13;1647896;85;21592;-75
2021/03/25 11:53:01;;;;;;;58.63;35.40;;;;;;;15.08;55.05;100938.27;1648005;86;21131;-75
2021/03/25 11:55:37;;;;;;;53.00;34.67;;;;;;;15.04;54.94;100930.25;1677416;85;21140;-76
2021/03/25 11:58:18;;;;;;;49.33;32.78;;;;;;;15.01;54.76;100927.94;1647015;87;21233;-75
2021/03/25 12:01:07;;;;;;;50.10;30.68;;;;;;;15.14;54.59;100928.61;1676792;85;21206;-75
2021/03/25 12:03:48;;;;;;;53.52;31.60;;;;;;;15.16;54.43;100924.74;1640904;87;21220;-75
2021/03/25 12:06:30;;;;;;;52.62;32.05;;;;;;;15.02;53.98;100922.05;1676341;85;21172;-75
2021/03/25 12:09:18;;;;;;;50.35;31.00;;;;;;;14.98;53.89;100922.94;1676935;85;21186;-76
2021/03/25 12:11:47;;;;;;;46.10;28.23;;;;;;;14.98;53.80;100917.56;1676340;85;21228;-76
2021/03/25 12:14:14;;;;;;;45.80;28.85;;;;;;;14.97;53.66;100915.38;1649073;86;21187;-79
2021/03/25 12:16:40;;;;;;;48.45;29.05;;;;;;;15.07;53.50;100924.50;1677138;85;21095;-79